createdAt,value
2019-04-16T00:00:11.834Z,86.60
2019-04-16T00:02:41.015Z,85.60
2019-04-16T00:05:21.740Z,85.70
2019-04-16T00:07:47.967Z,84.00
2019-04-16T00:10:28.692Z,82.70
2019-04-16T00:13:06.837Z,81.40
2019-04-16T00:15:28.043Z,80.70
2019-04-16T00:17:49.233Z,80.10
2019-04-16T00:20:10.542Z,79.80
2019-04-16T00:22:45.657Z,79.70
2019-04-16T00:25:06.888Z,79.30
2019-04-16T00:27:28.818Z,78.60
2019-04-16T00:29:50.841Z,78.30
2019-04-16T00:32:13.950Z,78.10
2019-04-16T00:34:35.162Z,77.90
2019-04-16T00:36:57.454Z,77.80
2019-04-16T00:39:18.650Z,77.60
2019-04-16T00:41:39.853Z,77.60
2019-04-16T00:44:02.252Z,77.60
2019-04-16T00:46:23.648Z,77.60
2019-04-16T00:48:44.915Z,78.20
2019-04-16T00:51:06.215Z,79.40
2019-04-16T00:53:27.507Z,79.70
2019-04-16T00:55:48.717Z,79.60
2019-04-16T00:58:09.919Z,79.20
2019-04-16T01:00:31.353Z,79.20
2019-04-16T01:02:52.934Z,79.20
2019-04-16T01:05:14.141Z,79.60
2019-04-16T01:07:35.447Z,79.50
2019-04-16T01:09:56.666Z,82.00
2019-04-16T01:12:18.945Z,82.40
2019-04-16T01:14:40.171Z,82.50
2019-04-16T01:17:04.076Z,82.10
2019-04-16T01:19:24.507Z,81.60
2019-04-16T01:21:45.703Z,81.70
2019-04-16T01:24:06.905Z,81.20
2019-04-16T01:26:28.097Z,81.60
2019-04-16T01:29:07.565Z,81.80
2019-04-16T01:31:39.548Z,81.80
2019-04-16T01:34:11.503Z,82.10
2019-04-16T01:36:34.640Z,82.10
2019-04-16T01:39:14.937Z,82.10
2019-04-16T01:41:25.653Z,81.40
2019-04-16T01:43:46.837Z,80.90
2019-04-16T01:46:08.045Z,80.50
2019-04-16T01:48:29.233Z,79.80
2019-04-16T01:50:50.432Z,79.10
2019-04-16T01:53:11.619Z,78.10
2019-04-16T01:55:32.829Z,78.30
2019-04-16T01:57:54.129Z,78.00
2019-04-16T02:00:15.426Z,77.30
2019-04-16T02:02:36.658Z,76.40
2019-04-16T02:04:57.848Z,75.70
2019-04-16T02:07:19.048Z,75.30
2019-04-16T02:09:40.249Z,75.30
2019-04-16T02:12:01.606Z,75.20
2019-04-16T02:14:22.854Z,75.90
2019-04-16T02:16:44.045Z,75.70
2019-04-16T02:19:05.225Z,75.70
2019-04-16T02:21:27.747Z,77.30
2019-04-16T02:23:48.921Z,77.80
2019-04-16T02:26:11.325Z,78.50
2019-04-16T02:28:32.514Z,78.70
2019-04-16T02:30:53.930Z,79.00
2019-04-16T02:33:15.433Z,78.90
2019-04-16T02:35:36.722Z,79.00
2019-04-16T02:37:59.141Z,79.10
2019-04-16T02:40:20.330Z,79.20
2019-04-16T02:42:41.641Z,79.70
2019-04-16T02:45:03.807Z,79.20
2019-04-16T02:47:25.048Z,80.10
2019-04-16T02:49:46.248Z,79.70
2019-04-16T02:52:17.038Z,79.20
2019-04-16T02:54:42.929Z,79.10
2019-04-16T02:57:07.151Z,79.10
2019-04-16T02:59:46.062Z,79.20
2019-04-16T03:02:12.963Z,79.50
2019-04-16T03:04:39.048Z,79.90
2019-04-16T03:07:02.695Z,79.60
2019-04-16T03:09:23.343Z,79.90
2019-04-16T03:11:45.566Z,80.00
2019-04-16T03:14:07.657Z,79.50
2019-04-16T03:16:37.703Z,79.10
2019-04-16T03:18:58.245Z,78.60
2019-04-16T03:21:19.420Z,78.30
2019-04-16T03:23:40.920Z,78.80
2019-04-16T03:26:02.207Z,79.40
2019-04-16T03:28:27.366Z,79.90
2019-04-16T03:30:46.994Z,80.10
2019-04-16T03:33:12.839Z,81.20
2019-04-16T03:35:31.367Z,81.80
2019-04-16T03:37:52.587Z,80.70
2019-04-16T03:40:17.094Z,79.90
2019-04-16T03:42:36.989Z,79.70
2019-04-16T03:44:58.175Z,79.80
2019-04-16T03:47:20.056Z,79.50
2019-04-16T03:49:41.585Z,79.50
2019-04-16T03:52:04.918Z,80.40
2019-04-16T03:54:26.073Z,82.60
2019-04-16T03:56:47.285Z,83.80
2019-04-16T03:59:11.617Z,83.60
2019-04-16T04:01:31.718Z,81.70
2019-04-16T04:03:54.439Z,81.20
2019-04-16T04:06:16.032Z,81.20
2019-04-16T04:08:37.245Z,81.20
2019-04-16T04:10:58.560Z,83.10
2019-04-16T04:13:20.371Z,83.20
2019-04-16T04:15:41.753Z,82.70
2019-04-16T04:18:03.211Z,82.80
2019-04-16T04:20:24.690Z,82.80
2019-04-16T04:22:45.923Z,82.50
2019-04-16T04:25:07.424Z,82.10
2019-04-16T04:27:28.655Z,81.80
2019-04-16T04:29:50.003Z,81.50
2019-04-16T04:32:11.560Z,82.00
2019-04-16T04:34:32.898Z,82.20
2019-04-16T04:36:58.842Z,82.80
2019-04-16T04:39:17.672Z,82.70
2019-04-16T04:41:38.875Z,82.20
2019-04-16T04:44:03.950Z,82.00
2019-04-16T04:46:23.184Z,81.60
2019-04-16T04:48:44.488Z,82.40
2019-04-16T04:51:08.178Z,82.80
2019-04-16T04:53:28.912Z,82.70
2019-04-16T04:55:50.310Z,83.50
2019-04-16T04:58:11.848Z,83.00
2019-04-16T05:00:33.042Z,83.10
2019-04-16T05:02:54.518Z,83.50
2019-04-16T05:05:25.604Z,83.20
2019-04-16T05:07:46.424Z,83.00
2019-04-16T05:10:08.440Z,83.50
2019-04-16T05:12:30.155Z,84.10
2019-04-16T05:14:57.519Z,83.70
2019-04-16T05:17:15.533Z,83.30
2019-04-16T05:19:36.992Z,82.80
2019-04-16T05:21:58.187Z,82.80
2019-04-16T05:24:19.423Z,83.10
2019-04-16T05:26:40.722Z,82.50
2019-04-16T05:29:17.520Z,82.10
2019-04-16T05:31:41.724Z,81.80
2019-04-16T05:34:06.046Z,81.50
2019-04-16T05:36:26.066Z,81.00
2019-04-16T05:38:47.250Z,81.10
2019-04-16T05:41:13.644Z,80.70
2019-04-16T05:43:32.546Z,79.90
2019-04-16T05:45:53.808Z,79.40
2019-04-16T05:48:15.160Z,78.90
2019-04-16T05:50:36.370Z,78.30
2019-04-16T05:52:57.573Z,77.70
2019-04-16T05:55:26.569Z,76.80
2019-04-16T05:57:49.979Z,77.00
2019-04-16T06:00:16.567Z,76.40
2019-04-16T06:02:39.695Z,75.80
2019-04-16T06:05:00.879Z,74.90
2019-04-16T06:07:22.151Z,74.90
2019-04-16T06:09:44.457Z,74.30
2019-04-16T06:12:08.915Z,74.20
2019-04-16T06:14:40.413Z,73.70
2019-04-16T06:17:20.191Z,74.20
2019-04-16T06:19:46.397Z,74.20
2019-04-16T06:22:08.608Z,74.00
2019-04-16T06:24:41.464Z,73.00
2019-04-16T06:27:04.659Z,72.80
2019-04-16T06:29:29.069Z,72.30
2019-04-16T06:31:55.771Z,72.30
2019-04-16T06:34:18.951Z,71.50
2019-04-16T06:39:18.526Z,70.30
2019-04-16T06:41:47.466Z,70.40
2019-04-16T06:44:12.722Z,70.40
2019-04-16T06:46:51.004Z,70.10
2019-04-16T06:49:26.562Z,68.50
2019-04-16T06:51:52.819Z,67.70
2019-04-16T06:54:25.582Z,66.70
2019-04-16T06:57:09.602Z,66.80
2019-04-16T06:59:37.442Z,66.70
2019-04-16T07:02:12.919Z,65.40
2019-04-16T07:04:52.390Z,65.80
2019-04-16T07:07:40.063Z,64.80
2019-04-16T07:10:04.196Z,63.80
2019-04-16T07:12:26.368Z,63.60
2019-04-16T07:14:48.455Z,63.70
2019-04-16T07:17:10.344Z,62.90
2019-04-16T07:19:31.638Z,62.90
2019-04-16T07:21:56.474Z,62.50
2019-04-16T07:24:17.721Z,61.50
2019-04-16T07:26:39.958Z,61.70
2019-04-16T07:29:09.835Z,61.40
2019-04-16T07:31:39.285Z,60.90
2019-04-16T07:34:08.018Z,60.40
2019-04-16T07:36:47.961Z,60.00
2019-04-16T07:39:29.728Z,59.60
2019-04-16T07:42:10.244Z,59.60
2019-04-16T07:44:44.175Z,59.10
2019-04-16T07:47:19.642Z,59.00
2019-04-16T07:49:43.841Z,58.80
2019-04-16T07:52:12.162Z,58.70
2019-04-16T07:54:34.792Z,58.50
2019-04-16T07:56:56.164Z,58.70
2019-04-16T07:59:18.479Z,58.40
2019-04-16T08:01:39.871Z,57.60
2019-04-16T08:04:02.622Z,58.10
2019-04-16T08:06:24.174Z,57.10
2019-04-16T08:08:45.409Z,57.40
2019-04-16T08:11:06.632Z,57.40
2019-04-16T08:13:33.278Z,57.90
2019-04-16T08:15:52.634Z,57.30
2019-04-16T08:18:27.212Z,58.20
2019-04-16T08:21:00.450Z,56.70
2019-04-16T08:23:29.995Z,55.30
2019-04-16T08:26:00.281Z,55.80
2019-04-16T08:28:14.302Z,55.40
2019-04-16T08:30:39.286Z,55.50
2019-04-16T08:32:58.636Z,54.70
2019-04-16T08:35:19.893Z,55.00
2019-04-16T08:37:48.774Z,54.40
2019-04-16T08:40:08.776Z,55.10
2019-04-16T08:42:29.569Z,53.70
2019-04-16T08:44:52.059Z,53.80
2019-04-16T08:47:13.282Z,54.20
2019-04-16T08:49:34.512Z,53.80
2019-04-16T08:51:58.242Z,52.60
2019-04-16T08:54:19.432Z,52.20
2019-04-16T08:56:43.165Z,52.40
2019-04-16T08:59:09.579Z,52.30
2019-04-16T09:01:29.155Z,51.80
2019-04-16T09:03:50.417Z,51.90
2019-04-16T09:06:13.549Z,51.40
2019-04-16T09:08:53.147Z,51.10
2019-04-16T09:11:23.160Z,49.90
2019-04-16T09:13:44.399Z,50.60
2019-04-16T09:16:06.519Z,49.80
2019-04-16T09:18:32.576Z,49.20
2019-04-16T09:20:53.762Z,48.70
2019-04-16T09:23:15.003Z,48.50
2019-04-16T09:25:54.709Z,47.70
2019-04-16T09:28:25.831Z,48.60
2019-04-16T09:30:51.323Z,48.00
2019-04-16T09:33:23.282Z,48.00
2019-04-16T09:35:52.717Z,47.40
2019-04-16T09:38:29.288Z,48.00
2019-04-16T09:41:01.164Z,47.80
2019-04-16T09:43:32.908Z,48.80
2019-04-16T09:45:54.098Z,48.50
2019-04-16T09:48:15.341Z,48.90
2019-04-16T09:50:36.702Z,48.80
2019-04-16T09:52:57.925Z,48.80
2019-04-16T09:55:19.624Z,47.90
2019-04-16T09:57:41.044Z,48.40
2019-04-16T10:00:16.838Z,48.80
2019-04-16T10:02:39.109Z,48.30
2019-04-16T10:05:00.510Z,48.70
2019-04-16T10:07:21.837Z,48.20
2019-04-16T10:09:43.135Z,47.60
2019-04-16T10:12:15.969Z,47.50
2019-04-16T10:14:37.495Z,46.40
2019-04-16T10:16:58.872Z,45.80
2019-04-16T10:19:21.713Z,46.20
2019-04-16T10:21:43.381Z,45.20
2019-04-16T10:24:06.568Z,46.30
2019-04-16T10:26:27.903Z,46.10
2019-04-16T10:28:49.168Z,46.70
2019-04-16T10:31:13.004Z,46.80
2019-04-16T10:33:34.230Z,46.60
2019-04-16T10:35:57.472Z,46.10
2019-04-16T10:38:37.413Z,46.20
2019-04-16T10:41:03.105Z,45.00
2019-04-16T10:43:44.737Z,45.00
2019-04-16T10:46:09.852Z,45.90
2019-04-16T10:48:45.159Z,45.40
2019-04-16T10:51:24.956Z,44.40
2019-04-16T10:53:56.891Z,42.50
2019-04-16T10:56:22.933Z,41.60
2019-04-16T10:59:04.089Z,40.40
2019-04-16T11:01:34.699Z,41.30
2019-04-16T11:04:10.554Z,40.00
2019-04-16T11:06:35.062Z,39.70
2019-04-16T11:08:57.941Z,39.80
2019-04-16T11:11:20.561Z,39.80
2019-04-16T11:13:58.584Z,39.90
2019-04-16T11:16:08.949Z,39.70
2019-04-16T11:18:30.356Z,40.50
2019-04-16T11:20:51.568Z,40.60
2019-04-16T11:23:12.995Z,40.60
2019-04-16T11:25:34.700Z,41.80
2019-04-16T11:27:55.928Z,42.40
2019-04-16T11:30:35.779Z,42.90
2019-04-16T11:32:57.684Z,44.10
2019-04-16T11:35:22.776Z,44.70
2019-04-16T11:37:44.502Z,42.90
2019-04-16T11:40:05.385Z,41.60
2019-04-16T11:42:26.660Z,40.80
2019-04-16T11:44:50.243Z,41.60
2019-04-16T11:47:10.941Z,41.50
2019-04-16T11:49:32.207Z,40.60
2019-04-16T11:51:53.476Z,40.10
2019-04-16T11:54:15.881Z,40.20
2019-04-16T11:56:37.638Z,40.30
2019-04-16T11:58:58.947Z,40.50
2019-04-16T12:01:37.132Z,41.00
2019-04-16T12:04:17.119Z,41.70
2019-04-16T12:06:47.797Z,40.30
2019-04-16T12:09:16.972Z,39.40
2019-04-16T12:11:40.139Z,39.70
2019-04-16T12:14:12.054Z,40.10
2019-04-16T12:16:37.888Z,38.60
2019-04-16T12:19:17.682Z,38.60
2019-04-16T12:21:51.156Z,38.20
2019-04-16T12:24:25.981Z,38.70
2019-04-16T12:26:52.182Z,37.60
2019-04-16T12:29:24.488Z,38.60
2019-04-16T12:32:04.124Z,39.40
2019-04-16T12:34:30.213Z,40.10
2019-04-16T12:36:54.383Z,40.70
2019-04-16T12:39:35.999Z,41.20
2019-04-16T12:42:00.178Z,41.40
2019-04-16T12:44:26.597Z,42.40
2019-04-16T12:46:58.917Z,41.70
2019-04-16T12:49:38.486Z,41.50
2019-04-16T12:52:01.741Z,41.00
2019-04-16T12:54:39.847Z,41.70
2019-04-16T12:57:14.806Z,41.90
2019-04-16T12:59:48.996Z,42.40
2019-04-16T13:02:15.258Z,42.50
2019-04-16T13:04:40.887Z,42.20
2019-04-16T13:07:04.806Z,42.20
2019-04-16T13:09:33.578Z,42.30
2019-04-16T13:12:11.719Z,42.70
2019-04-16T13:15:00.005Z,43.00
2019-04-16T13:17:18.916Z,43.20
2019-04-16T13:19:42.694Z,43.40
2019-04-16T13:22:05.892Z,43.20
2019-04-16T13:24:31.553Z,43.30
2019-04-16T13:26:57.146Z,44.10
2019-04-16T13:29:18.849Z,44.30
2019-04-16T13:31:40.117Z,44.70
2019-04-16T13:34:01.426Z,44.50
2019-04-16T13:36:26.936Z,44.70
2019-04-16T13:38:48.044Z,44.80
2019-04-16T13:41:09.218Z,45.90
2019-04-16T13:43:47.375Z,45.80
2019-04-16T13:46:08.585Z,44.70
2019-04-16T13:48:43.981Z,44.50
2019-04-16T13:51:15.122Z,44.60
2019-04-16T13:53:37.408Z,45.00
2019-04-16T13:56:00.517Z,45.60
2019-04-16T13:58:38.902Z,45.60
2019-04-16T14:03:56.064Z,45.40
2019-04-16T14:06:14.813Z,44.90
2019-04-16T14:08:36.000Z,43.00
2019-04-16T14:10:57.207Z,40.30
2019-04-16T14:13:18.386Z,39.70
2019-04-16T14:15:40.636Z,40.10
2019-04-16T14:18:03.176Z,40.10
2019-04-16T14:20:26.153Z,40.70
2019-04-16T14:22:47.443Z,40.30
2019-04-16T14:25:09.450Z,40.40
2019-04-16T14:27:30.642Z,40.90
2019-04-16T14:29:51.975Z,41.60
2019-04-16T14:32:13.230Z,41.60
2019-04-16T14:34:42.564Z,41.90
2019-04-16T14:37:03.864Z,42.10
2019-04-16T14:39:38.887Z,41.80
2019-04-16T14:42:00.085Z,42.00
2019-04-16T14:44:23.202Z,42.10
2019-04-16T14:46:44.469Z,42.10
2019-04-16T14:49:05.652Z,42.30
2019-04-16T14:51:26.893Z,42.30
2019-04-16T14:53:55.777Z,42.10
2019-04-16T14:56:30.570Z,42.40
2019-04-16T14:58:53.647Z,42.70
2019-04-16T15:01:26.613Z,42.80
2019-04-16T15:03:49.749Z,42.70
2019-04-16T15:06:19.647Z,42.50
2019-04-16T15:08:59.968Z,42.60
2019-04-16T15:11:39.499Z,42.70
2019-04-16T15:14:02.601Z,42.80
2019-04-16T15:16:42.623Z,43.20
2019-04-16T15:19:11.525Z,43.20
2019-04-16T15:21:37.175Z,43.50
2019-04-16T15:24:03.080Z,43.20
2019-04-16T15:26:39.864Z,43.00
2019-04-16T15:29:07.033Z,43.50
2019-04-16T15:31:33.671Z,43.50
2019-04-16T15:34:11.331Z,42.30
2019-04-16T15:36:34.542Z,43.30
2019-04-16T15:39:02.182Z,43.70
2019-04-16T15:42:00.276Z,44.10
2019-04-16T15:44:23.978Z,44.10
2019-04-16T15:46:47.422Z,42.40
2019-04-16T15:49:10.657Z,42.50
2019-04-16T15:51:39.650Z,42.80
2019-04-16T15:54:08.738Z,43.20
2019-04-16T15:56:32.191Z,43.10
2019-04-16T15:59:03.830Z,43.30
2019-04-16T16:01:32.757Z,43.10
2019-04-16T16:04:11.289Z,43.40
2019-04-16T16:06:34.709Z,43.60
2019-04-16T16:09:07.461Z,44.80
2019-04-16T16:11:35.221Z,45.90
2019-04-16T16:13:59.958Z,45.30
2019-04-16T16:16:24.374Z,45.10
2019-04-16T16:18:45.720Z,45.00
2019-04-16T16:21:06.988Z,45.50
2019-04-16T16:23:32.737Z,46.70
2019-04-16T16:25:52.513Z,46.30
2019-04-16T16:28:13.684Z,47.80
2019-04-16T16:30:35.377Z,48.00
2019-04-16T16:32:56.936Z,48.20
2019-04-16T16:35:18.225Z,48.30
2019-04-16T16:37:39.997Z,48.50
2019-04-16T16:40:04.795Z,48.30
2019-04-16T16:42:27.541Z,48.70
2019-04-16T16:44:48.909Z,47.80
2019-04-16T16:47:12.339Z,48.10
2019-04-16T16:49:33.899Z,49.50
2019-04-16T16:52:12.430Z,48.40
2019-04-16T16:54:33.734Z,48.50
2019-04-16T16:57:02.084Z,48.90
2019-04-16T16:59:27.890Z,48.90
2019-04-16T17:01:54.384Z,50.10
2019-04-16T17:04:16.180Z,51.90
2019-04-16T17:06:37.359Z,53.80
2019-04-16T17:08:58.939Z,54.20
2019-04-16T17:11:20.420Z,55.70
2019-04-16T17:13:42.077Z,56.10
2019-04-16T17:16:03.931Z,56.80
2019-04-16T17:18:25.407Z,57.40
2019-04-16T17:20:50.041Z,57.30
2019-04-16T17:23:10.618Z,57.20
2019-04-16T17:25:36.524Z,57.20
2019-04-16T17:27:55.343Z,56.90
2019-04-16T17:30:17.383Z,56.60
2019-04-16T17:32:38.965Z,56.70
2019-04-16T17:35:00.477Z,55.90
2019-04-16T17:37:27.652Z,56.10
2019-04-16T17:39:48.647Z,55.70
2019-04-16T17:42:17.908Z,55.60
2019-04-16T17:44:41.357Z,55.50
2019-04-16T17:47:05.000Z,55.70
2019-04-16T17:49:28.480Z,55.90
2019-04-16T17:51:54.782Z,56.10
2019-04-16T17:54:27.011Z,56.60
2019-04-16T17:57:02.358Z,57.40
2019-04-16T17:59:29.078Z,58.30
2019-04-16T18:02:09.279Z,59.70
2019-04-16T18:04:35.467Z,62.90
2019-04-16T18:06:58.965Z,67.80
2019-04-16T18:09:42.209Z,70.50
2019-04-16T18:12:16.935Z,73.20
2019-04-16T18:14:57.324Z,75.40
2019-04-16T18:17:30.229Z,76.10
2019-04-16T18:20:10.385Z,77.60
2019-04-16T18:22:45.789Z,77.10
2019-04-16T18:25:21.105Z,78.80
2019-04-16T18:28:06.820Z,80.30
2019-04-16T18:30:38.880Z,81.10
2019-04-16T18:33:14.978Z,82.40
2019-04-16T18:35:53.351Z,84.70
2019-04-16T18:38:25.923Z,85.50
2019-04-16T18:41:02.442Z,86.60
2019-04-16T18:43:32.911Z,88.10
2019-04-16T18:46:22.739Z,89.50
2019-04-16T18:51:25.554Z,90.60
2019-04-16T18:53:46.799Z,91.20
2019-04-16T18:56:07.992Z,91.70
2019-04-16T18:58:30.696Z,92.30
2019-04-16T19:00:53.806Z,92.40
2019-04-16T19:03:15.935Z,93.20
2019-04-16T19:05:37.386Z,93.60
2019-04-16T19:07:59.809Z,94.10
2019-04-16T19:10:22.006Z,94.50
2019-04-16T19:12:43.218Z,94.90
2019-04-16T19:15:05.237Z,95.30
2019-04-16T19:17:26.502Z,95.70
2019-04-16T19:19:47.698Z,96.10
2019-04-16T19:22:08.902Z,96.20
2019-04-16T19:24:30.098Z,96.70
2019-04-16T19:26:51.552Z,97.00
2019-04-16T19:29:14.505Z,97.10
2019-04-16T19:31:35.868Z,97.20
2019-04-16T19:33:57.093Z,97.60
2019-04-16T19:36:19.780Z,97.40
2019-04-16T19:38:41.543Z,97.70
2019-04-16T19:41:03.087Z,97.80
2019-04-16T19:43:34.344Z,98.10
2019-04-16T19:45:53.872Z,98.40
2019-04-16T19:48:17.859Z,98.30
2019-04-16T19:50:40.929Z,98.40
2019-04-16T19:53:02.345Z,98.70
2019-04-16T19:55:23.543Z,98.90
2019-04-16T19:57:44.956Z,98.80
2019-04-16T20:00:07.269Z,98.30
2019-04-16T20:02:33.291Z,98.70
2019-04-16T20:04:53.845Z,99.00
2019-04-16T20:07:16.954Z,98.90
2019-04-16T20:09:39.227Z,99.20
2019-04-16T20:12:01.435Z,99.20
2019-04-16T20:14:22.624Z,99.40
2019-04-16T20:16:43.860Z,99.70
2019-04-16T20:19:07.033Z,99.70
2019-04-16T20:21:28.702Z,99.60
2019-04-16T20:23:50.028Z,99.60
2019-04-16T20:26:11.382Z,99.70
2019-04-16T20:28:32.750Z,99.50
2019-04-16T20:31:01.954Z,99.90
2019-04-16T20:33:17.329Z,99.90
2019-04-16T20:35:38.852Z,99.90
2019-04-16T20:38:00.158Z,99.90
2019-04-16T20:40:21.383Z,99.90
2019-04-16T20:42:43.019Z,99.90
2019-04-16T20:45:05.026Z,99.90
2019-04-16T20:47:26.458Z,99.90
2019-04-16T20:49:49.128Z,99.90
2019-04-16T20:52:10.961Z,99.90
2019-04-16T20:54:32.418Z,99.90
2019-04-16T20:56:53.973Z,99.90
2019-04-16T20:59:16.520Z,99.90
2019-04-16T21:01:37.994Z,99.90
2019-04-16T21:04:04.612Z,99.90
2019-04-16T21:06:25.032Z,99.90
2019-04-16T21:08:46.351Z,99.90
2019-04-16T21:11:09.466Z,99.90
2019-04-16T21:13:30.902Z,99.90
2019-04-16T21:15:52.134Z,99.90
2019-04-16T21:18:13.326Z,99.90
2019-04-16T21:20:34.569Z,99.90
2019-04-16T21:23:01.293Z,99.90
2019-04-16T21:25:20.266Z,99.90
2019-04-16T21:27:49.237Z,99.90
2019-04-16T21:30:13.060Z,99.90
2019-04-16T21:32:35.721Z,99.90
2019-04-16T21:35:00.792Z,99.90
2019-04-16T21:37:39.088Z,99.90
2019-04-16T21:40:01.700Z,99.90
2019-04-16T21:42:24.130Z,99.90
2019-04-16T21:44:45.482Z,99.90
2019-04-16T21:47:06.876Z,99.90
2019-04-16T21:49:38.484Z,99.90
2019-04-16T21:52:06.727Z,99.90
2019-04-16T21:54:30.577Z,99.90
2019-04-16T21:56:54.689Z,99.90
2019-04-16T21:59:25.318Z,99.90
2019-04-16T22:01:55.502Z,99.90
2019-04-16T22:04:17.748Z,99.90
2019-04-16T22:06:38.984Z,99.90
2019-04-16T22:09:03.835Z,99.90
2019-04-16T22:11:25.348Z,99.90
2019-04-16T22:13:50.465Z,99.90
2019-04-16T22:16:10.375Z,99.90
2019-04-16T22:18:31.946Z,99.90
2019-04-16T22:21:26.494Z,99.90
2019-04-16T22:23:50.352Z,99.90
2019-04-16T22:26:41.542Z,99.90
2019-04-16T22:29:03.631Z,99.90
2019-04-16T22:31:25.015Z,99.90
2019-04-16T22:33:46.424Z,99.90
2019-04-16T22:36:16.507Z,99.90
2019-04-16T22:38:38.283Z,99.90
2019-04-16T22:41:02.233Z,99.90
2019-04-16T22:43:43.951Z,99.90
2019-04-16T22:46:09.030Z,99.90
2019-04-16T22:48:30.681Z,99.90
2019-04-16T22:50:55.518Z,99.90
2019-04-16T22:53:18.018Z,99.90
2019-04-16T22:55:42.571Z,99.90
2019-04-16T22:58:04.787Z,99.90
2019-04-16T23:00:31.217Z,99.90
2019-04-16T23:09:02.796Z,99.90
2019-04-16T23:11:26.142Z,99.90
2019-04-16T23:13:47.426Z,99.90
2019-04-16T23:16:08.931Z,99.90
2019-04-16T23:18:35.252Z,99.90
2019-04-16T23:20:57.525Z,99.90
2019-04-16T23:26:16.943Z,99.90
2019-04-16T23:28:58.735Z,99.90
2019-04-16T23:31:22.768Z,99.90
2019-04-16T23:33:44.614Z,99.90
2019-04-16T23:48:47.869Z,99.90
2019-04-16T23:51:14.128Z,99.90
2019-04-16T23:53:53.679Z,99.90
2019-04-16T23:56:25.632Z,99.90
2019-04-16T23:59:02.749Z,99.90
